WetterOnline ( https://www.wetteronline.de )

Wetter aktuell Utarp

Aktuelles Wetter: Norderney (16m)

6-stündlich | Neueste Meldungen
Ortszeit Temperatur Wetter
Mi, 26.01. 13:00 4.4° C bewölkt
Mi, 26.01. 7:00 3.7° C bedeckt
Mi, 26.01. 1:00 3.7° C bedeckt
Di, 25.01. 19:00 4.3° C Sprühregen
Di, 25.01. 13:00 5.3° C bedeckt
Di, 25.01. 7:00 5.4° C Sprühregen
Di, 25.01. 1:00 4.7° C bedeckt
Mo, 24.01. 19:00 5.1° C bedeckt
Ortszeit Temperatur Wetter
Mi, 26.01. 15:00 4.3° C Sprühregen
Mi, 26.01. 14:50 4.3° C Sprühregen
Mi, 26.01. 14:40 4.3° C Sprühregen
Mi, 26.01. 14:30 4.2° C bedeckt
Mi, 26.01. 14:20 4.2° C Dunst
Mi, 26.01. 14:10 4.2° C Sprühregen
Mi, 26.01. 14:00 4.2° C bewölkt
Mi, 26.01. 13:30 4.1° C bewölkt
Mi, 26.01. 13:00 4.4° C bewölkt
Mi, 26.01. 12:30 4.7° C bedeckt
Mi, 26.01. 12:00 4.9° C bedeckt
Ortszeit Relative Feuchte Sichtweite
Mi, 26.01. 13:00 95% 5.0 km
Mi, 26.01. 7:00 89% 6 km
Mi, 26.01. 1:00 96% 4.1 km
Di, 25.01. 19:00 97% 2.6 km
Di, 25.01. 13:00 91% 9 km
Di, 25.01. 7:00 85% 21 km
Di, 25.01. 1:00 87% 7 km
Mo, 24.01. 19:00 84% 12 km
Ortszeit Relative Feuchte Sichtweite
Mi, 26.01. 15:00 97% 2.8 km
Mi, 26.01. 14:50 97% -
Mi, 26.01. 14:40 96% -
Mi, 26.01. 14:30 96% 3.6 km
Mi, 26.01. 14:20 96% -
Mi, 26.01. 14:10 96% -
Mi, 26.01. 14:00 96% 3.4 km
Mi, 26.01. 13:30 95% 3.3 km
Mi, 26.01. 13:00 95% 5.0 km
Mi, 26.01. 12:30 93% 6 km
Mi, 26.01. 12:00 89% 7 km
Ortszeit Niederschlagsmenge Niederschlagsart
Mi, 26.01. 13:00 0.1 l/m2 in 6 Std. Regen
Mi, 26.01. 7:00 0.1 l/m2 in 12 Std. Sprühregen
Mi, 26.01. 1:00 0.1 l/m2 in 6 Std. Sprühregen
Di, 25.01. 19:00 0.1 l/m2 in 12 Std. Sprühregen
Di, 25.01. 13:00 0.1 l/m2 in 6 Std. Sprühregen
Di, 25.01. 7:00 0.1 l/m2 in 12 Std. Sprühregen
Di, 25.01. 1:00 0.1 l/m2 in 6 Std. Sprühregen
Mo, 24.01. 19:00 0.1 l/m2 in 12 Std. Sprühregen
Ortszeit Niederschlagsmenge Niederschlagsart
Mi, 26.01. 15:00 0.1 l/m2 in 1 Std. Sprühregen
Mi, 26.01. 14:50 keine Meldung -
Mi, 26.01. 14:40 keine Meldung -
Mi, 26.01. 14:30 0.1 l/m2 in 1 Std. Schnee
Mi, 26.01. 14:20 keine Meldung -
Mi, 26.01. 14:10 keine Meldung -
Mi, 26.01. 14:00 0.1 l/m2 in 1 Std. Sprühregen
Mi, 26.01. 13:30 0.1 l/m2 in 1 Std. Schnee
Mi, 26.01. 13:00 0.0 l/m2 in 1 Std. Regen
Mi, 26.01. 12:30 0.0 l/m2 in 1 Std. -
Mi, 26.01. 12:00 0.0 l/m2 in 1 Std. -
Ortszeit Stärke Spitze Richtung
km/h Bft. km/h Grad Sektor
Mi, 26.01. 13:00 22 4 40 230° SW
Mi, 26.01. 7:00 24 4 39 230° SW
Mi, 26.01. 1:00 20 4 33 230° SW
Di, 25.01. 19:00 14 3 29 230° SW
Di, 25.01. 13:00 13 3 19 230° SW
Di, 25.01. 7:00 9 2 19 270° W
Di, 25.01. 1:00 13 3 26 240° SW
Mo, 24.01. 19:00 13 3 28 210° SW
Ortszeit Stärke Spitze Richtung
km/h Bft. km/h Grad Sektor
Mi, 26.01. 15:00 25 4 43 230° SW
Mi, 26.01. 14:50 25 4 - 230° SW
Mi, 26.01. 14:40 25 4 - 230° SW
Mi, 26.01. 14:30 28 4 41 230° SW
Mi, 26.01. 14:20 28 4 - 230° SW
Mi, 26.01. 14:10 25 4 - 230° SW
Mi, 26.01. 14:00 25 4 43 230° SW
Mi, 26.01. 13:30 25 4 43 230° SW
Mi, 26.01. 13:00 22 4 36 230° SW
Mi, 26.01. 12:30 20 4 33 230° SW
Mi, 26.01. 12:00 22 4 32 240° SW
Ortszeit Untergrenze Bedeckung Gattung
total tief tief mittel hoch
Mi, 26.01. 13:00 150 m 7/8 7/8 - - -
Mi, 26.01. 7:00 510 m 8/8 8/8 - - -
Mi, 26.01. 1:00 90 m 8/8 8/8 - - -
Di, 25.01. 19:00 90 m 8/8 8/8 - - -
Di, 25.01. 13:00 510 m 8/8 8/8 - - -
Di, 25.01. 7:00 450 m 8/8 8/8 - - -
Di, 25.01. 1:00 480 m 8/8 8/8 - - -
Mo, 24.01. 19:00 510 m 8/8 8/8 - - -
Ortszeit Bedeckungsgrad in Achtel und Wolkenuntergrenze
Mi, 26.01. 15:00 7(120m)
Mi, 26.01. 14:50 7(120m)
Mi, 26.01. 14:40 8
Mi, 26.01. 14:30 8(120m)
Mi, 26.01. 14:20 8(120m)
Mi, 26.01. 14:10 8
Mi, 26.01. 14:00 7(150m)
Mi, 26.01. 13:30 7(120m)
Mi, 26.01. 13:00 7(150m) 7(480m) 7(840m)
Mi, 26.01. 12:30 3(180m) 7(570m) 8(780m)
Mi, 26.01. 12:00 2(360m) 7(570m) 8(720m)
Ortszeit Luftdruck NN (hPa) Tendenz (hPa in 3 Std.)
Mi, 26.01. 13:00 1028 - 0,5
Mi, 26.01. 7:00 1029 - 1,2
Mi, 26.01. 1:00 1031 - 0,4
Di, 25.01. 19:00 1032 - 0,4
Di, 25.01. 13:00 1033 + 0,2
Di, 25.01. 7:00 1033 - 0,4
Di, 25.01. 1:00 1034 0,0
Mo, 24.01. 19:00 1034 + 0,3
Ortszeit Luftdruck NN (hPa) Tendenz (hPa in 3 Std.)
Mi, 26.01. 15:00 1027 - 1,3
Mi, 26.01. 14:50 1027 keine Meldung
Mi, 26.01. 14:40 1027 keine Meldung
Mi, 26.01. 14:30 1027 - 1,8
Mi, 26.01. 14:20 1027 keine Meldung
Mi, 26.01. 14:10 1027 keine Meldung
Mi, 26.01. 14:00 1028 - 1,3
Mi, 26.01. 13:30 1028 - 0,8
Mi, 26.01. 13:00 1028 - 0,5
Mi, 26.01. 12:30 1028 - 0,4
Mi, 26.01. 12:00 1028 - 0,3
Ortszeit Schneehöhe (cm)
Mi, 26.01. 13:00 0
Mi, 26.01. 7:00 0
Mi, 26.01. 1:00 0
Di, 25.01. 19:00 0
Di, 25.01. 13:00 0
Di, 25.01. 7:00 0
Di, 25.01. 1:00 0
Mo, 24.01. 19:00 0
Ortszeit Schneehöhe (cm)
Mi, 26.01. 15:00 0
Mi, 26.01. 14:50 0
Mi, 26.01. 14:40 0
Mi, 26.01. 14:30 0
Mi, 26.01. 14:20 0
Mi, 26.01. 14:10 0
Mi, 26.01. 14:00 0
Mi, 26.01. 13:30 0
Mi, 26.01. 13:00 0
Mi, 26.01. 12:30 0
Mi, 26.01. 12:00 0
Link zu dieser Seite / Seite empfehlen

Das Wetter in ...